Time;durP1;ratioP1;P1;durP2;ratioP2;P2;SDS_P1;SDS_P2;PMS_P1;PMS_P2;Temp;Humidity;BMP_temperature;BMP_pressure;BME280_temperature;BME280_humidity;BME280_pressure;Samples;Min_cycle;Max_cycle;Signal;HPM_P1;HPM_P2
2023/05/11 00:00:36;;;;;;;3.35;2.17;;;;;;;;;;5067309;28;20041;-72
2023/05/11 00:03:04;;;;;;;4.05;2.05;;;;;;;;;;5065366;28;20534;-72
2023/05/11 00:05:32;;;;;;;3.10;1.90;;;;;;;;;;5060824;28;20084;-72
2023/05/11 00:08:01;;;;;;;2.72;1.90;;;;;;;;;;5065816;28;20064;-72
2023/05/11 00:10:28;;;;;;;3.08;2.13;;;;;;;;;;5061757;28;20037;-72
2023/05/11 00:12:56;;;;;;;3.30;2.05;;;;;;;;;;5069514;28;20495;-72
2023/05/11 00:15:23;;;;;;;2.70;1.73;;;;;;;;;;5067526;28;20057;-72
2023/05/11 00:17:50;;;;;;;3.15;1.88;;;;;;;;;;5060520;28;21720;-72
2023/05/11 00:20:20;;;;;;;2.53;1.80;;;;;;;;;;5067695;28;20060;-72
2023/05/11 00:22:47;;;;;;;3.17;1.70;;;;;;;;;;5063727;28;20050;-72
2023/05/11 00:25:14;;;;;;;2.50;1.90;;;;;;;;;;5066489;28;20506;-72
2023/05/11 00:27:44;;;;;;;2.53;1.80;;;;;;;;;;5065430;28;20056;-72
2023/05/11 00:30:13;;;;;;;4.00;1.90;;;;;;;;;;5082602;28;20048;-72
2023/05/11 00:32:40;;;;;;;3.40;1.90;;;;;;;;;;5070232;28;20499;-72
2023/05/11 00:35:08;;;;;;;3.85;1.95;;;;;;;;;;5067109;28;20056;-72
2023/05/11 00:37:37;;;;;;;3.63;1.98;;;;;;;;;;5066432;28;20052;-72
2023/05/11 00:40:04;;;;;;;4.13;2.15;;;;;;;;;;5059549;28;20057;-71
2023/05/11 00:42:31;;;;;;;3.90;2.00;;;;;;;;;;5068324;28;20052;-72
2023/05/11 00:44:58;;;;;;;3.28;2.40;;;;;;;;;;5066630;28;20048;-72
2023/05/11 00:47:26;;;;;;;5.22;2.30;;;;;;;;;;5069908;28;20067;-71
2023/05/11 00:49:54;;;;;;;3.92;2.38;;;;;;;;;;5068859;28;20071;-72
2023/05/11 00:52:22;;;;;;;4.78;2.50;;;;;;;;;;5069222;28;20056;-72
2023/05/11 00:54:51;;;;;;;4.07;2.10;;;;;;;;;;5073039;28;20083;-72
2023/05/11 00:57:18;;;;;;;3.05;2.33;;;;;;;;;;5063858;28;20055;-72
2023/05/11 00:59:45;;;;;;;3.47;2.20;;;;;;;;;;5070999;28;20053;-72
2023/05/11 01:02:12;;;;;;;4.68;2.40;;;;;;;;;;5069348;28;20063;-72
2023/05/11 01:04:40;;;;;;;4.03;2.70;;;;;;;;;;5073807;28;20045;-72
2023/05/11 01:07:10;;;;;;;3.92;2.30;;;;;;;;;;5070268;28;20052;-72
2023/05/11 01:09:44;;;;;;;3.92;2.08;;;;;;;;;;5070862;28;20431;-72
2023/05/11 01:12:16;;;;;;;3.72;2.15;;;;;;;;;;5070316;28;20052;-72
2023/05/11 01:14:48;;;;;;;3.78;2.60;;;;;;;;;;5066891;28;20051;-72
2023/05/11 01:17:19;;;;;;;4.32;2.40;;;;;;;;;;5071224;28;20191;-72
2023/05/11 01:19:49;;;;;;;3.80;2.10;;;;;;;;;;5071466;28;20051;-72
2023/05/11 01:22:20;;;;;;;4.82;2.60;;;;;;;;;;5069637;28;20044;-72
2023/05/11 01:24:55;;;;;;;3.88;2.50;;;;;;;;;;5068617;28;20051;-72
2023/05/11 01:27:33;;;;;;;5.20;2.53;;;;;;;;;;5069973;28;20045;-72
2023/05/11 01:30:18;;;;;;;3.35;2.17;;;;;;;;;;5066636;28;20072;-72
2023/05/11 01:32:47;;;;;;;3.63;2.17;;;;;;;;;;5057818;28;20041;-72
2023/05/11 01:35:18;;;;;;;6.75;2.53;;;;;;;;;;5065553;28;20060;-72
2023/05/11 01:37:48;;;;;;;3.78;2.38;;;;;;;;;;5066552;28;20546;-71
2023/05/11 01:40:16;;;;;;;3.33;2.10;;;;;;;;;;5069488;28;20051;-72
2023/05/11 01:42:46;;;;;;;3.35;2.00;;;;;;;;;;5063730;28;20408;-72
2023/05/11 01:45:13;;;;;;;3.80;2.30;;;;;;;;;;5067403;28;20044;-72
2023/05/11 01:47:42;;;;;;;2.60;2.05;;;;;;;;;;5067443;28;20051;-72
2023/05/11 01:50:11;;;;;;;3.38;2.10;;;;;;;;;;5066609;28;20049;-72
2023/05/11 01:52:39;;;;;;;3.28;2.10;;;;;;;;;;5069123;28;20052;-73
2023/05/11 01:55:08;;;;;;;3.83;2.42;;;;;;;;;;5070340;28;20056;-72
2023/05/11 01:57:37;;;;;;;4.15;2.63;;;;;;;;;;5070051;28;20052;-72
2023/05/11 02:00:04;;;;;;;5.00;2.60;;;;;;;;;;5072801;28;20044;-71
2023/05/11 02:02:32;;;;;;;3.65;2.30;;;;;;;;;;5067489;28;20401;-72
2023/05/11 02:04:59;;;;;;;4.03;2.53;;;;;;;;;;5063847;28;20056;-72
2023/05/11 02:07:29;;;;;;;4.95;2.90;;;;;;;;;;5070244;28;20048;-72
2023/05/11 02:09:57;;;;;;;5.07;2.70;;;;;;;;;;5068709;28;20086;-72
2023/05/11 02:12:26;;;;;;;3.67;2.28;;;;;;;;;;5067491;28;20119;-72
2023/05/11 02:14:54;;;;;;;4.18;2.45;;;;;;;;;;5068296;28;20514;-72
2023/05/11 02:17:22;;;;;;;4.93;2.92;;;;;;;;;;5069260;28;20403;-72
2023/05/11 02:19:49;;;;;;;4.88;2.80;;;;;;;;;;5068565;28;20075;-71
2023/05/11 02:22:17;;;;;;;5.03;2.63;;;;;;;;;;5068999;28;20045;-71
2023/05/11 02:24:47;;;;;;;4.97;2.67;;;;;;;;;;5069719;28;20044;-71
2023/05/11 02:27:14;;;;;;;4.47;2.70;;;;;;;;;;5068450;28;20049;-72
2023/05/11 02:29:41;;;;;;;4.20;2.63;;;;;;;;;;5067287;28;20492;-72
2023/05/11 02:32:09;;;;;;;5.43;2.90;;;;;;;;;;5068124;28;20120;-72
2023/05/11 02:34:39;;;;;;;4.57;3.10;;;;;;;;;;5069001;28;20423;-72
2023/05/11 02:37:09;;;;;;;5.35;2.80;;;;;;;;;;5069245;28;20045;-71
2023/05/11 02:39:37;;;;;;;5.05;2.75;;;;;;;;;;5068105;28;20127;-72
2023/05/11 02:42:09;;;;;;;4.95;3.15;;;;;;;;;;5072796;28;20434;-72
2023/05/11 02:44:37;;;;;;;5.78;3.20;;;;;;;;;;5071123;28;20044;-72
2023/05/11 02:47:06;;;;;;;5.15;3.20;;;;;;;;;;5069402;28;20052;-72
2023/05/11 02:49:36;;;;;;;7.43;3.45;;;;;;;;;;5069584;28;20053;-72
2023/05/11 02:52:04;;;;;;;5.47;2.97;;;;;;;;;;5067438;28;20049;-72
2023/05/11 02:54:32;;;;;;;4.32;2.70;;;;;;;;;;5069735;28;20048;-72
2023/05/11 02:56:59;;;;;;;4.80;2.97;;;;;;;;;;5066865;28;20056;-72
2023/05/11 02:59:28;;;;;;;4.68;2.50;;;;;;;;;;5070614;28;20052;-72
2023/05/11 03:01:56;;;;;;;5.00;2.70;;;;;;;;;;5068021;28;20040;-72
2023/05/11 03:04:23;;;;;;;4.78;2.75;;;;;;;;;;5060499;28;20048;-72
2023/05/11 03:06:50;;;;;;;4.57;2.55;;;;;;;;;;5067074;28;20152;-72
2023/05/11 03:09:17;;;;;;;5.68;2.80;;;;;;;;;;5077593;28;20051;-72
2023/05/11 03:11:45;;;;;;;4.97;2.63;;;;;;;;;;5068276;28;20048;-73
2023/05/11 03:14:12;;;;;;;4.45;2.60;;;;;;;;;;5063032;28;20052;-72
2023/05/11 03:16:41;;;;;;;4.18;2.53;;;;;;;;;;5068416;28;20052;-72
2023/05/11 03:19:09;;;;;;;4.10;2.60;;;;;;;;;;5067182;28;20087;-72
2023/05/11 03:21:37;;;;;;;4.38;2.80;;;;;;;;;;5068281;28;20120;-72
2023/05/11 03:24:06;;;;;;;8.63;2.90;;;;;;;;;;5064533;28;20140;-72
2023/05/11 03:26:34;;;;;;;6.80;2.85;;;;;;;;;;5067631;28;20496;-72
2023/05/11 03:29:02;;;;;;;7.78;2.88;;;;;;;;;;5065191;28;20407;-72
2023/05/11 03:31:29;;;;;;;4.55;2.75;;;;;;;;;;5065901;28;20052;-73
2023/05/11 03:33:58;;;;;;;3.75;2.50;;;;;;;;;;5068054;28;20135;-72
2023/05/11 03:36:26;;;;;;;6.32;2.10;;;;;;;;;;5069103;28;20457;-71
2023/05/11 03:38:55;;;;;;;5.00;2.08;;;;;;;;;;5063970;28;20476;-72
2023/05/11 03:41:24;;;;;;;8.10;2.22;;;;;;;;;;5068003;28;20127;-73
2023/05/11 03:43:52;;;;;;;3.28;1.80;;;;;;;;;;5067343;28;20052;-72
2023/05/11 03:46:20;;;;;;;3.45;2.15;;;;;;;;;;5068228;28;20044;-72
2023/05/11 03:48:48;;;;;;;3.13;1.75;;;;;;;;;;5067140;28;20052;-72
2023/05/11 03:51:17;;;;;;;9.50;1.90;;;;;;;;;;5067859;28;20135;-72
2023/05/11 03:53:45;;;;;;;4.00;2.28;;;;;;;;;;5069507;28;20045;-72
2023/05/11 03:56:12;;;;;;;3.22;1.98;;;;;;;;;;5067405;28;20041;-72
2023/05/11 03:58:40;;;;;;;4.93;2.10;;;;;;;;;;5067025;28;20040;-71
2023/05/11 04:01:08;;;;;;;2.58;1.70;;;;;;;;;;5066552;28;20072;-73
2023/05/11 04:03:36;;;;;;;10.77;1.80;;;;;;;;;;5065885;28;20071;-72
2023/05/11 04:06:03;;;;;;;6.72;1.80;;;;;;;;;;5063851;28;20052;-72
2023/05/11 04:08:32;;;;;;;5.65;2.17;;;;;;;;;;5081247;28;20052;-72
2023/05/11 04:10:59;;;;;;;6.22;2.30;;;;;;;;;;5067637;28;20503;-72
2023/05/11 04:13:26;;;;;;;9.10;1.85;;;;;;;;;;5062845;28;20044;-72
2023/05/11 04:15:53;;;;;;;3.13;1.88;;;;;;;;;;5064545;28;20053;-72
2023/05/11 04:18:21;;;;;;;2.70;1.77;;;;;;;;;;5060923;28;20064;-72
2023/05/11 04:20:48;;;;;;;13.73;2.00;;;;;;;;;;5059559;28;20045;-72
2023/05/11 04:23:16;;;;;;;2.35;1.45;;;;;;;;;;5065450;28;20052;-72
2023/05/11 04:25:44;;;;;;;2.60;1.80;;;;;;;;;;5062694;28;20056;-71
2023/05/11 04:28:11;;;;;;;2.75;1.60;;;;;;;;;;5067779;28;20059;-71
2023/05/11 04:30:39;;;;;;;2.58;1.38;;;;;;;;;;5063273;28;20060;-71
2023/05/11 04:33:06;;;;;;;1.50;0.90;;;;;;;;;;5076002;28;20041;-70
2023/05/11 04:35:33;;;;;;;4.53;1.27;;;;;;;;;;5069902;28;20059;-70
2023/05/11 04:38:00;;;;;;;8.52;1.40;;;;;;;;;;5066288;28;20053;-69
2023/05/11 04:40:27;;;;;;;4.63;1.15;;;;;;;;;;5069843;28;20048;-70
2023/05/11 04:42:56;;;;;;;6.70;1.17;;;;;;;;;;5068205;28;20041;-70
2023/05/11 04:45:23;;;;;;;2.65;1.58;;;;;;;;;;5067748;28;20049;-70
2023/05/11 04:47:50;;;;;;;1.70;0.90;;;;;;;;;;5067766;28;20053;-70
2023/05/11 04:50:18;;;;;;;1.48;1.02;;;;;;;;;;5070524;28;20044;-71
2023/05/11 04:52:45;;;;;;;2.03;1.30;;;;;;;;;;5068546;28;20059;-71
2023/05/11 04:55:12;;;;;;;2.70;1.10;;;;;;;;;;5073270;28;20190;-70
2023/05/11 04:57:39;;;;;;;2.22;1.20;;;;;;;;;;5071010;28;20456;-68
2023/05/11 05:00:09;;;;;;;1.52;1.00;;;;;;;;;;5067623;28;20055;-69
2023/05/11 05:02:36;;;;;;;2.15;1.30;;;;;;;;;;5064151;28;20094;-69
2023/05/11 05:05:04;;;;;;;2.13;1.15;;;;;;;;;;5060959;28;20053;-69
2023/05/11 05:07:31;;;;;;;2.05;1.08;;;;;;;;;;5068610;28;20506;-68
2023/05/11 05:09:58;;;;;;;8.32;1.40;;;;;;;;;;5073104;28;20060;-69
2023/05/11 05:12:25;;;;;;;1.92;1.15;;;;;;;;;;5070630;28;20045;-68
2023/05/11 05:14:53;;;;;;;1.80;1.25;;;;;;;;;;5068967;28;20411;-68
2023/05/11 05:17:21;;;;;;;1.88;1.20;;;;;;;;;;5073833;28;20045;-69
2023/05/11 05:19:49;;;;;;;2.08;1.10;;;;;;;;;;5060904;28;20045;-69
2023/05/11 05:22:16;;;;;;;1.80;1.13;;;;;;;;;;5068839;28;20052;-69
2023/05/11 05:24:43;;;;;;;3.78;1.10;;;;;;;;;;5065474;28;20075;-70
2023/05/11 05:27:10;;;;;;;1.67;0.90;;;;;;;;;;5064229;28;20060;-68
2023/05/11 05:29:38;;;;;;;1.60;0.85;;;;;;;;;;5069694;28;20044;-68
2023/05/11 05:32:05;;;;;;;1.15;0.77;;;;;;;;;;5067811;28;20053;-68
2023/05/11 05:34:33;;;;;;;1.60;1.10;;;;;;;;;;5057615;28;20057;-68
2023/05/11 05:37:01;;;;;;;1.10;0.80;;;;;;;;;;5067041;28;20036;-68
2023/05/11 05:39:28;;;;;;;1.33;0.93;;;;;;;;;;5060354;28;20110;-68
2023/05/11 05:41:55;;;;;;;1.90;1.00;;;;;;;;;;5066468;28;20049;-68
2023/05/11 05:44:22;;;;;;;1.73;0.93;;;;;;;;;;5063877;28;20048;-69
2023/05/11 05:46:50;;;;;;;1.40;1.02;;;;;;;;;;5059953;28;20067;-68
2023/05/11 05:49:17;;;;;;;1.88;1.08;;;;;;;;;;5065544;28;20514;-69
2023/05/11 05:51:45;;;;;;;1.30;1.00;;;;;;;;;;5061721;28;20040;-68
2023/05/11 05:54:13;;;;;;;1.70;0.98;;;;;;;;;;5064026;28;20088;-68
2023/05/11 05:56:40;;;;;;;1.00;0.80;;;;;;;;;;5066572;28;20051;-68
2023/05/11 05:59:09;;;;;;;1.50;1.05;;;;;;;;;;5064905;28;20084;-68
2023/05/11 06:01:40;;;;;;;1.35;0.93;;;;;;;;;;5068660;28;20071;-68
2023/05/11 06:04:07;;;;;;;1.40;0.82;;;;;;;;;;5063786;28;20048;-68
2023/05/11 06:06:34;;;;;;;1.17;0.80;;;;;;;;;;5064924;28;20045;-69
2023/05/11 06:09:03;;;;;;;1.15;0.80;;;;;;;;;;5059653;28;20412;-69
2023/05/11 06:11:30;;;;;;;1.00;0.80;;;;;;;;;;5069072;28;20047;-69
2023/05/11 06:13:57;;;;;;;1.30;0.80;;;;;;;;;;5067606;28;20073;-69
2023/05/11 06:16:25;;;;;;;2.63;0.80;;;;;;;;;;5066413;28;20044;-69
2023/05/11 06:18:53;;;;;;;1.52;0.98;;;;;;;;;;5065930;28;20088;-69
2023/05/11 06:21:20;;;;;;;1.77;1.00;;;;;;;;;;5074520;28;20512;-69
2023/05/11 06:23:47;;;;;;;1.17;0.82;;;;;;;;;;5063689;28;20389;-69
2023/05/11 06:26:16;;;;;;;1.35;1.00;;;;;;;;;;5074797;28;20060;-69
2023/05/11 06:28:43;;;;;;;1.52;1.05;;;;;;;;;;5061779;28;20045;-69
2023/05/11 06:31:10;;;;;;;1.55;1.10;;;;;;;;;;5066515;28;20056;-69
2023/05/11 06:33:37;;;;;;;2.03;1.10;;;;;;;;;;5072513;28;20071;-69
2023/05/11 06:36:05;;;;;;;2.50;1.20;;;;;;;;;;5069314;28;20420;-69
2023/05/11 06:38:32;;;;;;;1.85;1.20;;;;;;;;;;5063595;28;20131;-70
2023/05/11 06:41:00;;;;;;;1.95;1.33;;;;;;;;;;5063841;28;20063;-70
2023/05/11 06:43:28;;;;;;;1.75;1.15;;;;;;;;;;5064346;28;20055;-69
2023/05/11 06:45:56;;;;;;;1.95;1.02;;;;;;;;;;5068312;28;20071;-69
2023/05/11 06:48:24;;;;;;;2.67;1.52;;;;;;;;;;5066726;28;20044;-69
2023/05/11 06:50:51;;;;;;;1.58;1.20;;;;;;;;;;5067721;28;20496;-69
2023/05/11 06:53:19;;;;;;;1.73;1.23;;;;;;;;;;5069240;28;20076;-69
2023/05/11 06:55:46;;;;;;;1.73;1.30;;;;;;;;;;5068753;28;20078;-69
2023/05/11 06:58:13;;;;;;;1.92;1.20;;;;;;;;;;5067279;28;20056;-69
2023/05/11 07:00:42;;;;;;;1.50;1.20;;;;;;;;;;5069331;28;20051;-68
2023/05/11 07:03:09;;;;;;;1.92;1.20;;;;;;;;;;5061555;28;20071;-69
2023/05/11 07:05:38;;;;;;;2.00;1.40;;;;;;;;;;5063900;28;20045;-69
2023/05/11 07:08:06;;;;;;;2.83;1.73;;;;;;;;;;5064811;28;20048;-69
2023/05/11 07:10:33;;;;;;;2.80;1.80;;;;;;;;;;5066468;28;20114;-69
2023/05/11 07:13:00;;;;;;;2.65;1.80;;;;;;;;;;5066157;28;20056;-69
2023/05/11 07:15:27;;;;;;;3.30;2.08;;;;;;;;;;5063654;28;20445;-69
2023/05/11 07:17:56;;;;;;;3.08;2.20;;;;;;;;;;5067453;28;20052;-69
2023/05/11 07:20:23;;;;;;;4.88;2.50;;;;;;;;;;5063300;28;20056;-70
2023/05/11 07:22:50;;;;;;;4.45;2.10;;;;;;;;;;5068717;28;20055;-69
2023/05/11 07:25:18;;;;;;;3.95;2.72;;;;;;;;;;5059228;28;20048;-69
2023/05/11 07:27:45;;;;;;;3.95;2.65;;;;;;;;;;5063445;28;20044;-69
2023/05/11 07:30:12;;;;;;;3.42;2.13;;;;;;;;;;5065192;28;20095;-69
2023/05/11 07:32:40;;;;;;;4.95;2.50;;;;;;;;;;5067828;28;20048;-69
2023/05/11 07:35:09;;;;;;;4.10;2.75;;;;;;;;;;5066790;28;20043;-68
2023/05/11 07:37:36;;;;;;;3.55;2.53;;;;;;;;;;5067674;28;20127;-68
2023/05/11 07:40:04;;;;;;;7.13;3.33;;;;;;;;;;5065720;28;20399;-70
2023/05/11 07:42:31;;;;;;;4.03;2.83;;;;;;;;;;5067199;28;20052;-69
2023/05/11 07:44:58;;;;;;;4.13;2.83;;;;;;;;;;5061919;28;20511;-69
2023/05/11 07:47:26;;;;;;;6.25;3.80;;;;;;;;;;5063802;28;20044;-68
2023/05/11 07:49:53;;;;;;;4.25;3.00;;;;;;;;;;5061875;28;20049;-68
2023/05/11 07:52:22;;;;;;;5.07;3.20;;;;;;;;;;5067577;28;20048;-68
2023/05/11 07:54:49;;;;;;;6.32;3.50;;;;;;;;;;5065777;28;20076;-69
2023/05/11 07:57:17;;;;;;;7.30;3.70;;;;;;;;;;5065888;28;20064;-69
2023/05/11 07:59:44;;;;;;;8.48;4.20;;;;;;;;;;5066882;28;20128;-69
2023/05/11 08:02:11;;;;;;;5.45;3.75;;;;;;;;;;5068438;28;20044;-69
2023/05/11 08:04:39;;;;;;;5.43;3.53;;;;;;;;;;5062536;28;20036;-69
2023/05/11 08:07:07;;;;;;;5.35;3.28;;;;;;;;;;5064525;28;20049;-69
2023/05/11 08:09:36;;;;;;;5.40;3.58;;;;;;;;;;5064436;28;20049;-70
2023/05/11 08:12:03;;;;;;;5.63;3.28;;;;;;;;;;5065735;28;20056;-69
2023/05/11 08:14:31;;;;;;;5.18;3.67;;;;;;;;;;5064004;28;20045;-69
2023/05/11 08:16:58;;;;;;;5.90;4.03;;;;;;;;;;5066730;28;20060;-69
2023/05/11 08:19:25;;;;;;;5.97;3.83;;;;;;;;;;5064962;28;20064;-69
2023/05/11 08:21:52;;;;;;;5.30;3.85;;;;;;;;;;5068177;28;20057;-69
2023/05/11 08:24:20;;;;;;;6.68;4.05;;;;;;;;;;5066325;28;20056;-69
2023/05/11 08:26:48;;;;;;;5.38;3.72;;;;;;;;;;5068578;28;20049;-69
2023/05/11 08:29:16;;;;;;;5.68;3.95;;;;;;;;;;5066903;28;20070;-69
2023/05/11 08:31:43;;;;;;;4.40;3.50;;;;;;;;;;5065272;28;20239;-69
2023/05/11 08:34:11;;;;;;;5.70;4.10;;;;;;;;;;5069908;28;20460;-69
2023/05/11 08:36:38;;;;;;;7.00;3.85;;;;;;;;;;5069391;28;20081;-69
2023/05/11 08:39:05;;;;;;;6.15;4.20;;;;;;;;;;5064058;28;20503;-69
2023/05/11 08:41:33;;;;;;;8.27;4.35;;;;;;;;;;5066902;28;20484;-69
2023/05/11 08:44:02;;;;;;;8.30;4.82;;;;;;;;;;5069245;28;20052;-69
2023/05/11 08:46:30;;;;;;;7.30;4.30;;;;;;;;;;5070194;28;20048;-69
2023/05/11 08:48:58;;;;;;;7.35;4.60;;;;;;;;;;5068683;28;20049;-69
2023/05/11 08:51:27;;;;;;;7.07;4.55;;;;;;;;;;5066142;28;20083;-69
2023/05/11 08:53:56;;;;;;;7.72;4.50;;;;;;;;;;5067351;28;20665;-69
2023/05/11 08:56:26;;;;;;;7.22;4.50;;;;;;;;;;5065585;28;20056;-69
2023/05/11 08:58:55;;;;;;;8.73;4.47;;;;;;;;;;5069189;28;20498;-69
2023/05/11 09:01:24;;;;;;;7.57;4.28;;;;;;;;;;5067611;28;20118;-69
2023/05/11 09:03:52;;;;;;;5.10;3.22;;;;;;;;;;5063994;28;20053;-69
2023/05/11 09:06:19;;;;;;;6.00;3.70;;;;;;;;;;5066072;28;20048;-69
2023/05/11 09:08:46;;;;;;;5.50;3.58;;;;;;;;;;5069277;28;20099;-69
2023/05/11 09:11:14;;;;;;;6.88;3.75;;;;;;;;;;5066424;28;20067;-69
2023/05/11 09:13:41;;;;;;;6.20;3.25;;;;;;;;;;5066871;28;20055;-69
2023/05/11 09:16:08;;;;;;;4.45;2.67;;;;;;;;;;5067374;28;20088;-69
2023/05/11 09:18:46;;;;;;;3.55;2.55;;;;;;;;;;5072381;28;20057;-69
2023/05/11 09:21:13;;;;;;;3.88;2.63;;;;;;;;;;5072157;28;20064;-69
2023/05/11 09:23:41;;;;;;;4.05;2.80;;;;;;;;;;5072397;28;20093;-69
2023/05/11 09:26:14;;;;;;;3.88;2.67;;;;;;;;;;5070705;28;20045;-69
2023/05/11 09:28:48;;;;;;;3.58;2.30;;;;;;;;;;5066172;28;20055;-69
2023/05/11 09:31:35;;;;;;;2.60;2.05;;;;;;;;;;5069308;28;20512;-69
2023/05/11 09:34:15;;;;;;;2.72;2.10;;;;;;;;;;5070512;28;20080;-69
2023/05/11 09:36:42;;;;;;;3.42;2.35;;;;;;;;;;5070691;28;20064;-69
2023/05/11 09:39:10;;;;;;;2.40;1.83;;;;;;;;;;5070241;28;20052;-69
2023/05/11 09:41:38;;;;;;;2.95;2.00;;;;;;;;;;5070954;28;20048;-68
2023/05/11 09:44:07;;;;;;;2.47;1.65;;;;;;;;;;5071578;28;20510;-67
2023/05/11 09:46:35;;;;;;;2.28;1.80;;;;;;;;;;5065662;28;20049;-68
2023/05/11 09:49:03;;;;;;;4.70;2.15;;;;;;;;;;5070650;28;20045;-67
2023/05/11 09:51:33;;;;;;;2.92;1.85;;;;;;;;;;5068378;28;20059;-68
2023/05/11 09:54:00;;;;;;;2.72;2.33;;;;;;;;;;5070653;28;20055;-68
2023/05/11 09:56:45;;;;;;;3.50;2.22;;;;;;;;;;5069628;28;20041;-68
2023/05/11 09:59:12;;;;;;;3.42;2.30;;;;;;;;;;5067774;28;20124;-67
2023/05/11 10:01:39;;;;;;;2.80;2.00;;;;;;;;;;5069392;28;20048;-67
2023/05/11 10:04:07;;;;;;;3.22;2.10;;;;;;;;;;5066494;28;20049;-68
2023/05/11 10:06:49;;;;;;;3.33;2.08;;;;;;;;;;5068689;28;20057;-68
2023/05/11 10:09:18;;;;;;;2.83;1.65;;;;;;;;;;5071400;28;20503;-67
2023/05/11 10:11:46;;;;;;;2.90;1.90;;;;;;;;;;5066764;28;20060;-68
2023/05/11 10:14:14;;;;;;;2.00;1.50;;;;;;;;;;5067146;28;20052;-68
2023/05/11 10:16:42;;;;;;;2.00;1.50;;;;;;;;;;5070374;28;20049;-68
2023/05/11 10:19:10;;;;;;;2.72;1.77;;;;;;;;;;5070320;28;20123;-67
2023/05/11 10:21:38;;;;;;;2.17;1.55;;;;;;;;;;5072286;28;20044;-67
2023/05/11 10:24:07;;;;;;;2.28;1.67;;;;;;;;;;5071806;28;20084;-68
2023/05/11 10:26:35;;;;;;;4.75;2.05;;;;;;;;;;5071160;28;20506;-67
2023/05/11 10:29:02;;;;;;;2.78;1.90;;;;;;;;;;5069937;28;20055;-68
2023/05/11 10:31:30;;;;;;;2.75;1.90;;;;;;;;;;5070881;28;20040;-68
2023/05/11 10:33:57;;;;;;;2.55;1.90;;;;;;;;;;5070895;28;20051;-68
2023/05/11 10:36:26;;;;;;;6.05;1.88;;;;;;;;;;5066849;28;20495;-67
2023/05/11 10:38:53;;;;;;;2.10;1.70;;;;;;;;;;5068279;28;20515;-67
2023/05/11 10:41:29;;;;;;;2.22;1.70;;;;;;;;;;5071360;28;20055;-67
2023/05/11 10:44:12;;;;;;;2.50;1.80;;;;;;;;;;5066506;28;20044;-68
2023/05/11 10:46:46;;;;;;;3.22;1.67;;;;;;;;;;5066032;28;20090;-68
2023/05/11 10:49:22;;;;;;;3.03;1.60;;;;;;;;;;5069914;28;20480;-68
2023/05/11 10:52:04;;;;;;;2.25;1.67;;;;;;;;;;5067262;28;20063;-68
2023/05/11 10:54:42;;;;;;;2.25;1.63;;;;;;;;;;5064828;28;20063;-68
2023/05/11 10:57:16;;;;;;;2.65;1.73;;;;;;;;;;5069664;28;20056;-68
2023/05/11 11:00:08;;;;;;;1.83;1.45;;;;;;;;;;5066180;28;20041;-68
2023/05/11 11:02:36;;;;;;;2.80;1.85;;;;;;;;;;5067161;28;20080;-68
2023/05/11 11:05:04;;;;;;;2.63;1.67;;;;;;;;;;5069846;28;20052;-68
2023/05/11 11:07:32;;;;;;;2.10;1.73;;;;;;;;;;5064293;28;20056;-68
2023/05/11 11:10:03;;;;;;;2.20;1.90;;;;;;;;;;5068048;28;20050;-68
2023/05/11 11:12:33;;;;;;;2.42;1.90;;;;;;;;;;5066180;28;20074;-68
2023/05/11 11:15:02;;;;;;;2.20;1.77;;;;;;;;;;5066361;28;20056;-67
2023/05/11 11:17:31;;;;;;;2.38;1.92;;;;;;;;;;5070467;28;20052;-68
2023/05/11 11:19:59;;;;;;;2.67;2.10;;;;;;;;;;5070034;28;20056;-67
2023/05/11 11:22:46;;;;;;;2.13;1.60;;;;;;;;;;5072934;28;20071;-68
2023/05/11 11:25:14;;;;;;;2.47;1.80;;;;;;;;;;5068565;28;20056;-69
2023/05/11 11:27:59;;;;;;;2.20;1.75;;;;;;;;;;5064999;28;20045;-68
2023/05/11 11:30:29;;;;;;;2.45;1.77;;;;;;;;;;5062942;28;20053;-67
2023/05/11 11:33:16;;;;;;;2.33;1.80;;;;;;;;;;5062154;28;20053;-68
2023/05/11 11:35:46;;;;;;;3.05;1.92;;;;;;;;;;5064368;28;20051;-68
2023/05/11 11:38:14;;;;;;;2.30;1.90;;;;;;;;;;5066014;28;20048;-68
2023/05/11 11:40:42;;;;;;;2.15;1.85;;;;;;;;;;5066711;28;20484;-68
2023/05/11 11:43:13;;;;;;;2.58;2.10;;;;;;;;;;5061701;28;20170;-68
2023/05/11 11:45:51;;;;;;;3.58;2.67;;;;;;;;;;5069002;28;20040;-68
2023/05/11 11:48:21;;;;;;;2.97;2.63;;;;;;;;;;5062497;28;20166;-68
2023/05/11 11:50:49;;;;;;;2.60;2.40;;;;;;;;;;5071568;28;20051;-68
2023/05/11 11:53:31;;;;;;;3.75;2.72;;;;;;;;;;5063163;28;20053;-68
2023/05/11 11:55:58;;;;;;;6.15;2.97;;;;;;;;;;5056173;28;20052;-68
2023/05/11 11:58:59;;;;;;;3.40;2.80;;;;;;;;;;5067454;28;20048;-68
2023/05/11 12:01:29;;;;;;;3.95;2.70;;;;;;;;;;4974671;28;20082;-68
2023/05/11 12:04:15;;;;;;;3.10;2.75;;;;;;;;;;4977225;28;20050;-68
2023/05/11 12:06:43;;;;;;;3.05;2.60;;;;;;;;;;5027416;28;20044;-68
2023/05/11 12:09:10;;;;;;;3.08;2.50;;;;;;;;;;5059213;28;20508;-68
2023/05/11 12:11:38;;;;;;;3.50;2.85;;;;;;;;;;5066788;28;20055;-67
2023/05/11 12:14:06;;;;;;;3.13;2.83;;;;;;;;;;5067524;28;20041;-68
2023/05/11 12:16:35;;;;;;;3.33;3.00;;;;;;;;;;5067815;28;20132;-68
2023/05/11 12:19:03;;;;;;;3.08;2.78;;;;;;;;;;5062593;28;20106;-68
2023/05/11 12:21:31;;;;;;;3.25;2.78;;;;;;;;;;5068247;28;20048;-68
2023/05/11 12:23:59;;;;;;;3.63;3.00;;;;;;;;;;5064216;28;20122;-68
2023/05/11 12:26:28;;;;;;;3.80;3.00;;;;;;;;;;5066295;28;20057;-68
2023/05/11 12:29:07;;;;;;;3.00;2.70;;;;;;;;;;5067556;28;20045;-68
2023/05/11 12:31:37;;;;;;;3.47;3.13;;;;;;;;;;5063443;28;20043;-68
2023/05/11 12:34:04;;;;;;;3.55;2.63;;;;;;;;;;5067924;28;20052;-68
2023/05/11 12:36:32;;;;;;;3.50;2.90;;;;;;;;;;5066931;28;20045;-68
2023/05/11 12:38:59;;;;;;;3.13;2.70;;;;;;;;;;5069103;28;20059;-68
2023/05/11 12:41:27;;;;;;;3.67;2.80;;;;;;;;;;5068707;28;20045;-68
2023/05/11 12:43:55;;;;;;;3.25;2.42;;;;;;;;;;5070780;28;20044;-68
2023/05/11 12:46:23;;;;;;;2.92;2.55;;;;;;;;;;5073966;28;20098;-66
2023/05/11 12:48:52;;;;;;;2.70;2.17;;;;;;;;;;5071606;28;20386;-66
2023/05/11 12:51:37;;;;;;;2.67;2.35;;;;;;;;;;5072714;28;20495;-66
2023/05/11 12:54:04;;;;;;;2.38;2.17;;;;;;;;;;5069776;28;20076;-67
2023/05/11 12:56:44;;;;;;;2.78;2.33;;;;;;;;;;5073676;28;20055;-66
2023/05/11 12:59:24;;;;;;;2.45;2.25;;;;;;;;;;5071535;28;20049;-66
2023/05/11 13:01:51;;;;;;;3.13;2.33;;;;;;;;;;5069769;28;20051;-67
2023/05/11 13:04:28;;;;;;;2.67;2.20;;;;;;;;;;5065480;28;20476;-67
2023/05/11 13:06:55;;;;;;;2.58;1.90;;;;;;;;;;5065297;28;20052;-67
2023/05/11 13:09:23;;;;;;;2.83;2.00;;;;;;;;;;5071889;28;20400;-66
2023/05/11 13:11:50;;;;;;;1.98;1.65;;;;;;;;;;5071865;28;20041;-66
2023/05/11 13:14:17;;;;;;;2.50;1.90;;;;;;;;;;5076190;28;20055;-67
2023/05/11 13:16:53;;;;;;;2.30;1.77;;;;;;;;;;5066230;28;20070;-67
2023/05/11 13:19:29;;;;;;;2.97;1.85;;;;;;;;;;5065541;28;20053;-67
2023/05/11 13:21:56;;;;;;;2.33;1.80;;;;;;;;;;5073912;28;20048;-67
2023/05/11 13:24:23;;;;;;;2.28;1.92;;;;;;;;;;5070704;28;20044;-66
2023/05/11 13:26:51;;;;;;;2.28;1.80;;;;;;;;;;5068262;28;20122;-66
2023/05/11 13:29:18;;;;;;;1.90;1.55;;;;;;;;;;5070916;28;20055;-66
2023/05/11 13:31:46;;;;;;;1.70;1.40;;;;;;;;;;5068988;28;20546;-67
2023/05/11 13:34:13;;;;;;;2.63;1.40;;;;;;;;;;5068334;28;20048;-66
2023/05/11 13:36:41;;;;;;;1.63;1.30;;;;;;;;;;5067040;28;20060;-66
2023/05/11 13:39:09;;;;;;;1.30;1.15;;;;;;;;;;5067806;28;20045;-67
2023/05/11 13:41:36;;;;;;;1.40;1.20;;;;;;;;;;5067393;28;20137;-66
2023/05/11 13:44:03;;;;;;;1.27;1.17;;;;;;;;;;5067836;28;20094;-66
2023/05/11 13:46:31;;;;;;;1.75;1.30;;;;;;;;;;5066685;28;20044;-66
2023/05/11 13:48:59;;;;;;;1.73;1.50;;;;;;;;;;5070023;28;20048;-67
2023/05/11 13:51:26;;;;;;;1.95;1.50;;;;;;;;;;5071290;28;20102;-66
2023/05/11 13:53:58;;;;;;;1.67;1.58;;;;;;;;;;5067389;28;20052;-67
2023/05/11 13:56:25;;;;;;;2.78;1.40;;;;;;;;;;5065415;28;20682;-66
2023/05/11 13:58:52;;;;;;;2.22;1.42;;;;;;;;;;5069526;28;20056;-66
2023/05/11 14:01:19;;;;;;;2.10;1.60;;;;;;;;;;5061110;28;20053;-67
2023/05/11 14:03:52;;;;;;;3.38;1.45;;;;;;;;;;5065124;28;20597;-66
2023/05/11 14:06:19;;;;;;;2.67;1.70;;;;;;;;;;5068265;28;20550;-66
2023/05/11 14:08:46;;;;;;;2.35;1.70;;;;;;;;;;5074685;28;20283;-67
2023/05/11 14:11:15;;;;;;;1.85;1.67;;;;;;;;;;5068430;28;20055;-66
2023/05/11 14:13:42;;;;;;;2.33;1.80;;;;;;;;;;5067839;28;20052;-67
2023/05/11 14:16:09;;;;;;;2.25;1.73;;;;;;;;;;5060428;28;20053;-66
2023/05/11 14:18:37;;;;;;;2.53;1.88;;;;;;;;;;5057028;28;20053;-66
2023/05/11 14:21:04;;;;;;;2.55;1.60;;;;;;;;;;5064389;28;20067;-67
2023/05/11 14:23:31;;;;;;;2.15;1.60;;;;;;;;;;5069808;28;20068;-66
2023/05/11 14:25:58;;;;;;;2.25;1.85;;;;;;;;;;5066715;28;20049;-66
2023/05/11 14:28:27;;;;;;;2.10;1.70;;;;;;;;;;5065685;28;20040;-67
2023/05/11 14:30:55;;;;;;;1.75;1.52;;;;;;;;;;5067284;28;20048;-66
2023/05/11 14:33:23;;;;;;;1.83;1.50;;;;;;;;;;5069538;28;20088;-66
2023/05/11 14:35:50;;;;;;;1.98;1.33;;;;;;;;;;5070185;28;20048;-66
2023/05/11 14:38:17;;;;;;;1.67;1.48;;;;;;;;;;5069631;28;20052;-66
2023/05/11 14:40:45;;;;;;;1.95;1.45;;;;;;;;;;5071093;28;20500;-69
2023/05/11 14:43:12;;;;;;;1.60;1.40;;;;;;;;;;5067334;28;20057;-66
2023/05/11 14:45:41;;;;;;;1.83;1.45;;;;;;;;;;5069181;28;20080;-66
2023/05/11 14:48:08;;;;;;;2.00;1.58;;;;;;;;;;5064980;28;20055;-63
2023/05/11 14:50:36;;;;;;;2.63;1.60;;;;;;;;;;5067552;28;20060;-63
2023/05/11 14:53:04;;;;;;;1.48;1.33;;;;;;;;;;5063708;28;20590;-63